Time;durP1;ratioP1;P1;durP2;ratioP2;P2;SDS_P1;SDS_P2;PMS_P1;PMS_P2;Temp;Humidity;BMP_temperature;BMP_pressure;BME280_temperature;BME280_humidity;BME280_pressure;Samples;Min_cycle;Max_cycle;Signal;HPM_P1;HPM_P2
2023/04/02 00:00:28;;;;;;;3.75;0.90;;;;;;;10.76;73.09;99807.75;4114027;28;20354;-68
2023/04/02 00:02:32;;;;;;;2.63;1.10;;;;;;;10.69;73.25;99812.09;4114593;28;20039;-68
2023/04/02 00:04:36;;;;;;;2.90;1.00;;;;;;;10.53;73.55;99813.78;4109633;28;20061;-67
2023/04/02 00:06:43;;;;;;;1.70;1.05;;;;;;;10.52;73.58;99814.63;4114557;28;20331;-68
2023/04/02 00:08:47;;;;;;;2.35;1.10;;;;;;;10.56;73.63;99812.91;4108943;28;20039;-67
2023/04/02 00:10:52;;;;;;;6.05;1.50;;;;;;;10.68;72.96;99817.28;4114808;28;20045;-67
2023/04/02 00:13:00;;;;;;;2.50;1.08;;;;;;;10.64;72.76;99817.28;4115454;28;20402;-67
2023/04/02 00:15:06;;;;;;;2.03;1.23;;;;;;;10.61;73.00;99825.03;4115288;28;20074;-67
2023/04/02 00:17:09;;;;;;;3.63;1.50;;;;;;;10.58;72.49;99824.19;4115389;28;20101;-67
2023/04/02 00:19:16;;;;;;;3.33;1.40;;;;;;;10.63;73.02;99827.66;4115060;28;20043;-67
2023/04/02 00:21:22;;;;;;;2.80;1.15;;;;;;;10.66;72.93;99827.69;4115255;28;20130;-68
2023/04/02 00:23:26;;;;;;;3.67;1.58;;;;;;;10.67;73.49;99832.00;4114658;28;20030;-67
2023/04/02 00:25:33;;;;;;;2.05;1.20;;;;;;;10.70;73.98;99825.94;4112105;28;20057;-67
2023/04/02 00:27:37;;;;;;;4.80;1.65;;;;;;;10.71;73.28;99841.56;4114061;28;20043;-67
2023/04/02 00:29:46;;;;;;;3.67;1.23;;;;;;;10.71;73.86;99836.34;4113042;28;20123;-67
2023/04/02 00:31:54;;;;;;;3.85;1.30;;;;;;;10.72;74.37;99832.00;4127610;28;20446;-67
2023/04/02 00:33:59;;;;;;;2.92;1.27;;;;;;;10.73;74.14;99845.03;4112091;28;20047;-67
2023/04/02 00:36:06;;;;;;;4.57;1.45;;;;;;;10.73;74.05;99845.03;4114671;28;20058;-66
2023/04/02 00:38:19;;;;;;;2.17;1.00;;;;;;;10.67;74.53;99839.81;4129149;28;20038;-68
2023/04/02 00:40:26;;;;;;;5.68;1.10;;;;;;;10.64;74.78;99843.28;4128306;28;20074;-67
2023/04/02 00:42:31;;;;;;;3.03;1.10;;;;;;;10.63;74.36;99840.66;4113743;28;20540;-67
2023/04/02 00:44:36;;;;;;;;;;;;;;;10.57;75.12;99848.44;4111324;28;20039;-67
2023/04/02 00:46:45;;;;;;;;;;;;;;;10.52;75.01;99845.81;4112854;28;20375;-67
2023/04/02 00:48:54;;;;;;;4.22;1.25;;;;;;;10.55;74.29;99843.22;4125451;28;20335;-68
2023/04/02 00:51:01;;;;;;;4.78;1.30;;;;;;;10.54;74.48;99846.72;4112887;28;20062;-68
2023/04/02 00:53:10;;;;;;;2.40;0.98;;;;;;;10.54;74.62;99848.41;4111199;28;20518;-68
2023/04/02 00:55:17;;;;;;;3.25;1.35;;;;;;;10.55;74.88;99843.22;4112719;28;20106;-68
2023/04/02 00:57:24;;;;;;;3.58;1.08;;;;;;;10.57;74.81;99844.13;4112858;28;20064;-68
2023/04/02 00:59:30;;;;;;;2.33;0.95;;;;;;;10.59;74.48;99839.78;4113959;28;20404;-68
2023/04/02 01:01:41;;;;;;;4.30;1.10;;;;;;;10.60;73.70;99844.13;4112828;28;20547;-68
2023/04/02 01:03:57;;;;;;;1.95;1.25;;;;;;;10.54;73.59;99848.41;4112717;28;20094;-67
2023/04/02 01:06:09;;;;;;;3.80;1.20;;;;;;;10.48;73.91;99851.84;4108482;28;20073;-68
2023/04/02 01:08:20;;;;;;;1.38;0.90;;;;;;;10.51;73.42;99854.47;4111574;28;20039;-68
2023/04/02 01:10:39;;;;;;;5.40;1.23;;;;;;;10.55;73.85;99855.34;4111821;28;20039;-68
2023/04/02 01:12:55;;;;;;;1.23;0.90;;;;;;;10.56;73.93;99855.38;4108931;28;20046;-67
2023/04/02 01:15:08;;;;;;;2.10;0.85;;;;;;;10.58;73.91;99850.16;4111759;28;20093;-68
2023/04/02 01:17:25;;;;;;;3.33;1.30;;;;;;;10.59;73.57;99857.97;4110213;28;20051;-67
2023/04/02 01:20:05;;;;;;;3.50;1.20;;;;;;;10.57;73.81;99851.91;4112628;28;20039;-68
2023/04/02 01:22:14;;;;;;;2.25;1.13;;;;;;;10.59;74.46;99857.97;4112927;28;20445;-68
2023/04/02 01:24:19;;;;;;;3.05;1.00;;;;;;;10.56;74.01;99859.72;4111138;28;20062;-68
2023/04/02 01:26:40;;;;;;;3.78;1.35;;;;;;;10.56;73.82;99859.72;4096199;28;20316;-69
2023/04/02 01:29:00;;;;;;;3.97;1.40;;;;;;;10.56;74.10;99857.97;4129533;28;20034;-68
2023/04/02 01:31:04;;;;;;;3.08;1.00;;;;;;;10.52;74.26;99866.59;4111807;28;20031;-68
2023/04/02 01:33:07;;;;;;;3.30;1.40;;;;;;;10.50;74.79;99868.34;4127912;28;20030;-69
2023/04/02 01:35:10;;;;;;;3.53;1.30;;;;;;;10.50;73.84;99872.66;4112580;28;20043;-68
2023/04/02 01:37:26;;;;;;;3.08;1.20;;;;;;;10.52;73.63;99870.94;4095115;28;20035;-68
2023/04/02 01:39:34;;;;;;;;;;;;;;;10.44;74.33;99878.69;4111799;28;20078;-68
2023/04/02 01:41:46;;;;;;;2.78;1.13;;;;;;;10.50;74.37;99877.84;4111886;28;20384;-69
2023/04/02 01:43:56;;;;;;;3.13;1.30;;;;;;;10.51;73.82;99877.00;4110803;28;20445;-68
2023/04/02 01:45:59;;;;;;;2.65;1.27;;;;;;;10.44;73.89;99883.88;4109692;28;20174;-68
2023/04/02 01:48:06;;;;;;;2.97;1.10;;;;;;;10.43;73.92;99880.41;4112226;28;20508;-68
2023/04/02 01:50:22;;;;;;;5.93;1.20;;;;;;;10.50;73.46;99880.44;4111929;28;20460;-68
2023/04/02 01:52:36;;;;;;;3.38;1.40;;;;;;;10.53;73.71;99878.75;4110322;28;20497;-68
2023/04/02 01:54:41;;;;;;;5.45;1.48;;;;;;;10.39;72.89;99891.66;4101800;28;20109;-68
2023/04/02 01:56:45;;;;;;;3.47;1.40;;;;;;;10.37;73.12;99889.94;4123469;28;20064;-68
2023/04/02 01:58:50;;;;;;;;;;;;;;;10.34;74.31;99890.78;4112482;28;20488;-68
2023/04/02 02:00:58;;;;;;;5.55;1.30;;;;;;;10.35;73.83;99889.88;4121047;28;19922;-68
2023/04/02 02:03:02;;;;;;;3.17;1.60;;;;;;;10.39;74.01;99885.59;4126605;28;20081;-68
2023/04/02 02:05:06;;;;;;;2.72;1.38;;;;;;;10.39;73.56;99890.78;4123688;28;20038;-68
2023/04/02 02:07:14;;;;;;;2.20;1.15;;;;;;;10.41;74.32;99895.16;4127288;28;20554;-68
2023/04/02 02:09:23;;;;;;;1.80;1.30;;;;;;;10.40;73.67;99895.13;4112127;28;20129;-68
2023/04/02 02:11:29;;;;;;;3.95;1.55;;;;;;;10.34;74.73;99898.56;4113069;28;20039;-68
2023/04/02 02:13:32;;;;;;;4.32;1.17;;;;;;;10.39;74.28;99894.25;4110527;28;20069;-68
2023/04/02 02:15:36;;;;;;;4.45;1.40;;;;;;;10.38;74.60;99899.44;4111241;28;20047;-68
2023/04/02 02:17:39;;;;;;;3.70;1.27;;;;;;;10.42;74.62;99886.47;4112284;28;20070;-68
2023/04/02 02:19:45;;;;;;;5.65;1.42;;;;;;;10.45;75.03;99894.31;4106573;28;20125;-69
2023/04/02 02:21:51;;;;;;;2.75;1.30;;;;;;;10.46;74.50;99893.44;4111423;28;20077;-68
2023/04/02 02:23:55;;;;;;;1.98;1.00;;;;;;;10.40;74.44;99903.78;4107103;28;20485;-67
2023/04/02 02:25:58;;;;;;;3.75;1.65;;;;;;;10.36;74.21;99906.38;4111933;28;20039;-67
2023/04/02 02:28:06;;;;;;;3.30;1.30;;;;;;;10.34;74.18;99908.97;4111769;28;20049;-68
2023/04/02 02:30:14;;;;;;;3.65;1.05;;;;;;;10.34;74.00;99910.66;4110781;28;20086;-67
2023/04/02 02:32:21;;;;;;;4.70;1.20;;;;;;;10.34;73.98;99914.16;4111491;28;20038;-67
2023/04/02 02:34:33;;;;;;;2.28;1.00;;;;;;;10.39;74.22;99915.03;4111826;28;20412;-68
2023/04/02 02:36:44;;;;;;;1.52;0.95;;;;;;;10.41;74.72;99917.66;4111339;28;20073;-68
2023/04/02 02:38:54;;;;;;;3.45;1.25;;;;;;;10.41;74.02;99915.94;4097118;28;20047;-68
2023/04/02 02:41:13;;;;;;;4.85;1.35;;;;;;;10.39;74.92;99915.03;4110399;28;20046;-68
2023/04/02 02:43:18;;;;;;;3.08;1.20;;;;;;;10.37;75.20;99919.38;4111113;28;20042;-68
2023/04/02 02:45:27;;;;;;;2.42;1.30;;;;;;;10.42;73.92;99922.84;4110073;28;20046;-68
2023/04/02 02:47:35;;;;;;;3.60;1.40;;;;;;;10.34;74.26;99936.66;4112253;28;20034;-68
2023/04/02 02:49:43;;;;;;;4.80;2.47;;;;;;;10.29;74.65;99944.38;4110700;28;20047;-68
2023/04/02 02:51:49;;;;;;;3.70;1.50;;;;;;;10.29;74.59;99934.00;4122839;28;20043;-68
2023/04/02 02:54:03;;;;;;;2.75;1.25;;;;;;;10.32;74.45;99936.59;4108450;28;20081;-68
2023/04/02 02:56:08;;;;;;;2.97;1.27;;;;;;;10.42;74.75;99935.84;4110412;28;20417;-68
2023/04/02 02:58:18;;;;;;;1.98;1.50;;;;;;;10.41;73.74;99941.91;4112048;28;20038;-68
2023/04/02 03:00:35;;;;;;;2.65;1.20;;;;;;;10.42;74.55;99941.03;4111262;28;20139;-68
2023/04/02 03:02:42;;;;;;;3.50;1.38;;;;;;;10.42;73.59;99950.56;4110898;28;20043;-68
2023/04/02 03:04:48;;;;;;;3.00;1.35;;;;;;;10.37;73.99;99949.69;4105796;28;20134;-68
2023/04/02 03:06:53;;;;;;;2.67;1.17;;;;;;;10.35;73.97;99952.25;4112043;28;20034;-68
2023/04/02 03:09:04;;;;;;;2.38;1.20;;;;;;;10.31;74.31;99951.34;4122936;28;20038;-67
2023/04/02 03:11:14;;;;;;;2.72;1.30;;;;;;;10.31;73.86;99950.47;4107789;28;20046;-68
2023/04/02 03:13:22;;;;;;;2.60;1.40;;;;;;;10.36;73.80;99951.41;4125012;28;20061;-67
2023/04/02 03:15:34;;;;;;;3.72;1.40;;;;;;;10.37;74.03;99955.75;4111733;28;20070;-68
2023/04/02 03:17:44;;;;;;;4.43;1.33;;;;;;;10.37;75.09;99965.28;4111627;28;20118;-68
2023/04/02 03:19:54;;;;;;;2.97;1.25;;;;;;;10.40;73.84;99960.97;4111772;28;20043;-68
2023/04/02 03:22:03;;;;;;;2.78;1.38;;;;;;;10.38;73.87;99965.28;4108490;28;20035;-67
2023/04/02 03:24:14;;;;;;;2.95;1.33;;;;;;;10.41;74.61;99962.72;4095011;28;20131;-67
2023/04/02 03:26:22;;;;;;;6.32;1.95;;;;;;;10.46;74.41;99973.13;4111968;28;20039;-67
2023/04/02 03:28:30;;;;;;;2.53;1.35;;;;;;;10.35;74.33;99970.44;4112057;28;20121;-67
2023/04/02 03:30:40;;;;;;;5.05;1.48;;;;;;;10.26;74.61;99976.41;4109533;28;20058;-67
2023/04/02 03:32:48;;;;;;;2.72;1.52;;;;;;;10.11;74.60;99974.56;4110630;28;20093;-67
2023/04/02 03:34:56;;;;;;;3.85;1.48;;;;;;;10.16;74.77;99981.53;4108693;28;20453;-68
2023/04/02 03:37:05;;;;;;;3.22;1.40;;;;;;;10.17;75.05;99984.13;4110971;28;20179;-68
2023/04/02 03:39:14;;;;;;;3.40;1.40;;;;;;;10.20;75.33;99988.50;4113561;28;20059;-68
2023/04/02 03:41:33;;;;;;;5.35;1.70;;;;;;;10.10;75.31;99988.44;4113666;28;20062;-68
2023/04/02 03:43:40;;;;;;;2.90;1.50;;;;;;;10.04;75.12;99990.09;4097894;28;20043;-68
2023/04/02 03:45:50;;;;;;;3.78;1.45;;;;;;;10.06;74.62;99997.03;4113539;28;20043;-68
2023/04/02 03:47:59;;;;;;;2.88;1.58;;;;;;;10.08;75.25;99999.66;4114038;28;20046;-68
2023/04/02 03:50:06;;;;;;;4.63;1.42;;;;;;;10.16;75.15;99999.72;4113840;28;20074;-68
2023/04/02 03:52:13;;;;;;;2.58;1.50;;;;;;;10.13;74.78;100006.63;4114300;28;20027;-67
2023/04/02 03:54:17;;;;;;;4.00;1.67;;;;;;;10.22;74.88;99998.03;4114711;28;20163;-69
2023/04/02 03:56:27;;;;;;;2.65;1.27;;;;;;;10.21;74.46;100011.03;4113981;28;20122;-68
2023/04/02 03:58:38;;;;;;;3.08;1.50;;;;;;;10.25;75.01;100012.75;4114512;28;20038;-69
2023/04/02 04:00:48;;;;;;;4.22;1.38;;;;;;;10.35;74.06;100011.16;4114126;28;20049;-68
2023/04/02 04:02:56;;;;;;;2.33;1.55;;;;;;;10.32;73.95;100011.94;4104514;28;20039;-68
2023/04/02 04:05:00;;;;;;;3.08;1.52;;;;;;;10.32;74.21;100014.56;4113876;28;20042;-67
2023/04/02 04:07:03;;;;;;;4.20;1.77;;;;;;;10.31;74.56;100018.03;4128113;28;20043;-67
2023/04/02 04:09:10;;;;;;;3.25;2.00;;;;;;;10.19;74.35;100020.50;4115165;28;20400;-68
2023/04/02 04:11:16;;;;;;;2.22;1.13;;;;;;;10.22;74.73;100025.72;4113551;28;20042;-68
2023/04/02 04:13:25;;;;;;;3.60;1.80;;;;;;;10.24;74.82;100021.44;4112956;28;20413;-68
2023/04/02 04:15:35;;;;;;;4.95;1.45;;;;;;;10.25;74.72;100030.94;4127315;28;20034;-68
2023/04/02 04:17:52;;;;;;;3.38;1.42;;;;;;;10.28;74.52;100026.66;4113298;28;20042;-68
2023/04/02 04:20:16;;;;;;;1.58;1.33;;;;;;;10.21;74.27;100031.81;4112468;28;20580;-66
2023/04/02 04:22:29;;;;;;;2.95;1.42;;;;;;;10.12;74.70;100037.78;4110679;28;20119;-68
2023/04/02 04:24:38;;;;;;;2.20;1.23;;;;;;;10.14;74.13;100029.13;4112914;28;20097;-67
2023/04/02 04:26:48;;;;;;;5.63;1.90;;;;;;;10.16;75.20;100038.66;4113303;28;20038;-67
2023/04/02 04:29:04;;;;;;;3.47;1.50;;;;;;;10.17;74.32;100038.69;4114494;28;20738;-67
2023/04/02 04:31:19;;;;;;;5.15;1.70;;;;;;;10.21;74.66;100037.00;4097538;28;20047;-67
2023/04/02 04:33:27;;;;;;;1.88;1.30;;;;;;;10.19;74.10;100046.47;4113991;28;20035;-67
2023/04/02 04:35:38;;;;;;;3.85;1.23;;;;;;;10.21;74.61;100050.00;4113406;28;20043;-67
2023/04/02 04:37:52;;;;;;;3.53;1.48;;;;;;;10.19;74.27;100049.97;4112890;28;20046;-67
2023/04/02 04:39:59;;;;;;;2.65;1.55;;;;;;;10.20;74.40;100050.84;4112640;28;20042;-67
2023/04/02 04:42:05;;;;;;;2.40;1.55;;;;;;;10.16;75.17;100062.03;4128002;28;20451;-67
2023/04/02 04:44:17;;;;;;;2.60;1.45;;;;;;;10.15;74.44;100063.78;4112724;28;20081;-67
2023/04/02 04:46:28;;;;;;;4.45;1.75;;;;;;;10.14;74.99;100065.50;4112783;28;20035;-68
2023/04/02 04:48:36;;;;;;;3.17;1.55;;;;;;;10.16;74.66;100070.69;4113925;28;20035;-67
2023/04/02 04:50:49;;;;;;;4.75;1.48;;;;;;;10.20;74.32;100074.22;4110656;28;20066;-67
2023/04/02 04:52:52;;;;;;;2.75;1.23;;;;;;;10.23;74.89;100075.09;4127715;28;20519;-67
2023/04/02 04:54:55;;;;;;;4.47;1.50;;;;;;;10.20;74.33;100082.00;4128538;28;20400;-68
2023/04/02 04:57:03;;;;;;;2.53;1.40;;;;;;;10.27;74.17;100079.47;4112918;28;20480;-67
2023/04/02 04:59:17;;;;;;;2.55;1.52;;;;;;;10.27;73.80;100083.81;4112414;28;20034;-68
2023/04/02 05:01:27;;;;;;;3.80;1.50;;;;;;;10.29;73.78;100082.97;4097773;28;20035;-67
2023/04/02 05:03:35;;;;;;;4.63;1.40;;;;;;;10.27;74.42;100095.06;4112930;28;20125;-68
2023/04/02 05:05:42;;;;;;;4.50;1.30;;;;;;;10.29;73.78;100090.78;4110400;28;20045;-67
2023/04/02 05:07:50;;;;;;;1.45;1.15;;;;;;;10.28;74.01;100091.63;4109536;28;20043;-67
2023/04/02 05:09:59;;;;;;;2.40;1.50;;;;;;;10.29;74.40;100100.28;4112739;28;20043;-66
2023/04/02 05:12:12;;;;;;;4.70;1.80;;;;;;;10.34;73.95;100101.22;4128931;28;20096;-67
2023/04/02 05:14:23;;;;;;;2.00;1.20;;;;;;;10.31;74.24;100103.78;4111265;28;20488;-68
2023/04/02 05:16:36;;;;;;;2.35;1.25;;;;;;;10.29;74.00;100106.34;4112651;28;20066;-67
2023/04/02 05:18:43;;;;;;;1.45;1.17;;;;;;;10.29;74.15;100111.56;4114012;28;20110;-67
2023/04/02 05:20:54;;;;;;;2.17;1.35;;;;;;;10.27;74.34;100114.97;4108641;28;20038;-67
2023/04/02 05:23:03;;;;;;;2.80;1.50;;;;;;;10.28;74.20;100114.13;4128316;23;20049;-70
2023/04/02 05:25:15;;;;;;;1.88;1.40;;;;;;;10.27;74.44;100114.97;4124479;28;20046;-70
2023/04/02 05:27:28;;;;;;;1.20;1.10;;;;;;;10.29;74.21;100121.06;4142436;28;20044;-71
2023/04/02 05:29:36;;;;;;;1.85;1.15;;;;;;;10.30;74.29;100121.06;4127005;28;20042;-70
2023/04/02 05:31:45;;;;;;;2.95;1.40;;;;;;;10.33;74.66;100124.56;4145377;28;20084;-70
2023/04/02 05:33:49;;;;;;;1.17;1.00;;;;;;;10.31;73.87;100134.94;4115133;28;20042;-70
2023/04/02 05:35:59;;;;;;;3.17;1.00;;;;;;;10.31;74.32;100137.53;4140500;28;20645;-70
2023/04/02 05:38:05;;;;;;;2.25;1.40;;;;;;;10.28;74.40;100138.38;4132069;28;20042;-70
2023/04/02 05:40:15;;;;;;;3.35;1.30;;;;;;;10.28;74.59;100142.72;4144826;28;20133;-70
2023/04/02 05:42:23;;;;;;;3.17;1.40;;;;;;;10.25;74.85;100153.94;4126768;28;20057;-70
2023/04/02 05:44:33;;;;;;;2.88;1.38;;;;;;;10.26;75.34;100149.59;4128329;28;20455;-70
2023/04/02 05:46:46;;;;;;;2.90;1.40;;;;;;;10.25;75.14;100153.06;4144886;28;20088;-70
2023/04/02 05:48:55;;;;;;;1.95;1.20;;;;;;;10.21;75.41;100159.09;4132039;28;20037;-70
2023/04/02 05:51:00;;;;;;;2.13;1.20;;;;;;;10.25;74.96;100166.03;4144579;28;20535;-70
2023/04/02 05:53:11;;;;;;;1.30;1.02;;;;;;;10.29;75.45;100165.22;4127723;28;20031;-70
2023/04/02 05:55:29;;;;;;;2.15;1.30;;;;;;;10.29;75.39;100167.81;4128238;28;20098;-70
2023/04/02 05:57:37;;;;;;;4.72;1.67;;;;;;;10.30;74.59;100166.97;4127920;28;20038;-70
2023/04/02 06:00:00;;;;;;;2.78;1.40;;;;;;;10.30;74.29;100166.97;4139008;28;20517;-69
2023/04/02 06:02:11;;;;;;;2.08;1.30;;;;;;;10.27;75.19;100172.16;4143144;28;20048;-69
2023/04/02 06:04:21;;;;;;;4.05;1.48;;;;;;;10.28;75.64;100179.94;4111807;28;20121;-69
2023/04/02 06:06:44;;;;;;;1.83;1.30;;;;;;;10.32;75.42;100183.44;4142480;28;20070;-70
2023/04/02 06:08:56;;;;;;;2.40;1.50;;;;;;;10.30;75.17;100182.56;4146112;28;20048;-70
2023/04/02 06:11:07;;;;;;;4.57;1.30;;;;;;;10.32;75.17;100186.03;4126037;28;20064;-70
2023/04/02 06:13:17;;;;;;;2.00;1.55;;;;;;;10.28;75.40;100184.28;4144559;28;20033;-70
2023/04/02 06:15:22;;;;;;;4.40;1.60;;;;;;;10.29;75.51;100188.59;4127484;28;20034;-70
2023/04/02 06:17:33;;;;;;;4.72;2.15;;;;;;;10.23;75.78;100196.34;4128618;28;20507;-70
2023/04/02 06:19:38;;;;;;;2.72;1.30;;;;;;;10.22;75.90;100200.69;4133927;28;20463;-70
2023/04/02 06:21:45;;;;;;;3.20;1.35;;;;;;;10.20;76.63;100202.38;4128855;28;20122;-70
2023/04/02 06:23:53;;;;;;;2.83;1.52;;;;;;;10.24;76.31;100213.69;4144084;28;20038;-70
2023/04/02 06:26:03;;;;;;;3.67;1.83;;;;;;;10.31;76.46;100210.31;4127618;28;20490;-70
2023/04/02 06:28:14;;;;;;;3.13;1.80;;;;;;;10.33;75.85;100207.72;4130556;28;20049;-70
2023/04/02 06:30:28;;;;;;;2.85;1.80;;;;;;;10.33;76.11;100205.97;4135095;28;20034;-70
2023/04/02 06:32:31;;;;;;;4.10;1.85;;;;;;;10.38;75.64;100211.25;4137914;28;20046;-70
2023/04/02 06:34:38;;;;;;;1.77;1.60;;;;;;;10.39;76.26;100219.06;4125701;28;20463;-70
2023/04/02 06:36:46;;;;;;;3.08;2.00;;;;;;;10.40;75.73;100213.03;4122067;28;20030;-70
2023/04/02 06:38:50;;;;;;;2.83;1.70;;;;;;;10.44;76.05;100222.59;4131194;28;20550;-70
2023/04/02 06:40:57;;;;;;;3.67;1.88;;;;;;;10.44;75.96;100224.31;4133579;28;20046;-70
2023/04/02 06:43:32;;;;;;;3.88;1.88;;;;;;;10.39;76.12;100234.66;4126637;28;20042;-70
2023/04/02 06:45:51;;;;;;;2.42;1.30;;;;;;;10.33;76.54;100239.75;4130181;28;20452;-69
2023/04/02 06:48:16;;;;;;;2.55;1.67;;;;;;;10.37;76.50;100244.19;4143193;28;20112;-69
2023/04/02 06:50:25;;;;;;;5.57;1.50;;;;;;;10.40;75.98;100252.00;4129978;28;20046;-69
2023/04/02 06:52:34;;;;;;;2.80;1.60;;;;;;;10.46;76.21;100246.00;4126533;28;20042;-68
2023/04/02 06:54:38;;;;;;;3.15;1.73;;;;;;;10.44;75.73;100258.97;4133371;28;20160;-69
2023/04/02 06:56:46;;;;;;;4.32;2.20;;;;;;;10.50;75.60;100262.50;4134926;28;20381;-68
2023/04/02 06:58:54;;;;;;;1.90;1.55;;;;;;;10.55;75.73;100258.22;4133685;28;20034;-67
2023/04/02 07:00:58;;;;;;;5.00;1.45;;;;;;;10.61;75.63;100261.75;4112206;28;20051;-69
2023/04/02 07:03:24;;;;;;;3.35;1.58;;;;;;;10.63;75.49;100259.16;4124922;28;20420;-69
2023/04/02 07:05:57;;;;;;;2.97;1.48;;;;;;;10.69;75.02;100264.44;4126672;28;20072;-68
2023/04/02 07:08:01;;;;;;;4.05;1.40;;;;;;;10.76;74.83;100268.88;4131896;28;20536;-67
2023/04/02 07:10:05;;;;;;;1.42;1.30;;;;;;;10.68;74.73;100275.69;4144307;28;20046;-68
2023/04/02 07:12:11;;;;;;;1.98;1.10;;;;;;;10.81;74.92;100268.91;4146460;28;20380;-67
2023/04/02 07:14:15;;;;;;;5.95;1.33;;;;;;;10.68;74.59;100283.50;4130828;28;20515;-67
2023/04/02 07:16:20;;;;;;;4.35;1.73;;;;;;;10.77;73.81;100286.19;4131265;28;20038;-68
2023/04/02 07:18:26;;;;;;;1.65;1.27;;;;;;;10.77;74.71;100288.78;4130982;28;20035;-70
2023/04/02 07:20:32;;;;;;;2.75;1.85;;;;;;;10.81;74.30;100290.56;4132141;28;20089;-76
2023/04/02 07:22:39;;;;;;;2.85;1.13;;;;;;;10.85;74.86;100298.41;4129710;28;20045;-76
2023/04/02 07:24:44;;;;;;;1.35;1.08;;;;;;;10.88;74.89;100295.81;4128104;28;20076;-75
2023/04/02 07:26:47;;;;;;;5.05;2.17;;;;;;;10.90;74.48;100304.53;4124757;28;20389;-75
2023/04/02 07:28:50;;;;;;;5.45;2.20;;;;;;;10.92;74.04;100303.69;4124257;28;20096;-75
2023/04/02 07:30:54;;;;;;;2.28;1.50;;;;;;;10.94;73.86;100307.19;4128594;28;20038;-75
2023/04/02 07:32:57;;;;;;;2.55;1.65;;;;;;;10.95;74.08;100313.25;4125768;28;20038;-76
2023/04/02 07:35:00;;;;;;;1.95;1.23;;;;;;;10.90;74.16;100325.34;4132368;28;20109;-75
2023/04/02 07:37:03;;;;;;;2.88;1.13;;;;;;;10.93;73.91;100320.16;4130778;28;20575;-75
2023/04/02 07:39:06;;;;;;;2.03;1.20;;;;;;;10.97;74.17;100321.94;4113921;28;20038;-69
2023/04/02 07:41:11;;;;;;;2.63;1.40;;;;;;;10.98;74.22;100328.88;4130761;28;20444;-71
2023/04/02 07:43:14;;;;;;;2.13;1.20;;;;;;;10.98;74.16;100328.88;4130405;28;20041;-64
2023/04/02 07:45:17;;;;;;;2.72;1.60;;;;;;;10.98;73.51;100331.47;4130042;28;20042;-65
2023/04/02 07:47:20;;;;;;;2.95;1.60;;;;;;;11.03;73.20;100329.81;4136945;28;20057;-70
2023/04/02 07:49:23;;;;;;;4.30;1.60;;;;;;;11.07;73.29;100338.50;4130594;28;20042;-65
2023/04/02 07:51:26;;;;;;;2.40;1.60;;;;;;;11.10;72.90;100346.38;4131139;28;20034;-64
2023/04/02 07:53:31;;;;;;;1.60;1.38;;;;;;;11.13;73.39;100342.06;4125341;28;20481;-68
2023/04/02 07:55:34;;;;;;;2.88;1.60;;;;;;;11.06;72.65;100355.84;4129189;28;20039;-66
2023/04/02 07:57:41;;;;;;;2.90;1.20;;;;;;;11.04;72.72;100354.09;4128217;28;20575;-68
2023/04/02 07:59:48;;;;;;;3.10;1.20;;;;;;;10.92;73.82;100353.13;4126971;28;20125;-68
2023/04/02 08:01:52;;;;;;;1.75;1.30;;;;;;;10.87;73.93;100356.53;4125386;28;20073;-70
2023/04/02 08:03:56;;;;;;;2.20;1.40;;;;;;;10.98;73.66;100362.69;4125265;28;20035;-68
2023/04/02 08:05:59;;;;;;;2.50;1.40;;;;;;;11.07;73.81;100360.22;4126127;28;20104;-69
2023/04/02 08:08:02;;;;;;;1.80;1.42;;;;;;;11.24;73.03;100359.50;4130432;28;20559;-71
2023/04/02 08:10:07;;;;;;;3.45;1.45;;;;;;;11.32;73.07;100373.47;4129189;28;20046;-70
2023/04/02 08:12:12;;;;;;;;;;;;;;;11.20;72.43;100368.13;4129719;28;20046;-69
2023/04/02 08:14:16;;;;;;;2.72;1.45;;;;;;;11.26;73.01;100374.28;4123868;28;19921;-68
2023/04/02 08:16:19;;;;;;;2.75;1.35;;;;;;;11.28;73.29;100375.16;4130675;28;20038;-67
2023/04/02 08:18:23;;;;;;;2.35;1.60;;;;;;;11.37;73.21;100379.56;4130305;28;20042;-67
2023/04/02 08:20:26;;;;;;;2.42;1.40;;;;;;;11.42;72.39;100382.22;4131400;28;20046;-68
2023/04/02 08:22:29;;;;;;;1.88;1.38;;;;;;;11.46;72.34;100382.28;4131306;28;20443;-67
2023/04/02 08:24:32;;;;;;;1.42;1.33;;;;;;;11.48;71.89;100388.38;4133051;28;20054;-68
2023/04/02 08:26:35;;;;;;;1.40;1.30;;;;;;;11.52;72.19;100374.53;4135088;28;20241;-68
2023/04/02 08:28:38;;;;;;;4.78;1.55;;;;;;;11.62;72.21;100390.22;4137681;28;20050;-68
2023/04/02 08:30:42;;;;;;;3.40;1.50;;;;;;;11.68;71.02;100387.66;4139393;28;20049;-68
2023/04/02 08:32:45;;;;;;;1.80;1.40;;;;;;;11.68;71.77;100398.06;4132637;28;20518;-68
2023/04/02 08:34:48;;;;;;;2.05;1.40;;;;;;;11.67;71.74;100396.34;4138412;28;20030;-68
2023/04/02 08:36:55;;;;;;;2.22;1.75;;;;;;;11.75;70.95;100401.63;4131805;28;20049;-68
2023/04/02 08:38:58;;;;;;;3.28;1.58;;;;;;;11.72;71.13;100407.66;4136143;28;20092;-68
2023/04/02 08:41:04;;;;;;;2.15;1.42;;;;;;;11.76;70.68;100416.41;4137807;28;20046;-68
2023/04/02 08:43:23;;;;;;;1.70;1.30;;;;;;;11.74;71.68;100423.31;4139158;28;20062;-68
2023/04/02 08:45:38;;;;;;;5.68;1.67;;;;;;;11.78;71.73;100430.28;4142303;28;20036;-68
2023/04/02 08:47:46;;;;;;;2.00;1.40;;;;;;;11.79;71.58;100414.66;4123076;28;20479;-68
2023/04/02 08:49:54;;;;;;;5.28;1.65;;;;;;;11.79;71.88;100425.09;4133116;28;20049;-68
2023/04/02 08:51:57;;;;;;;2.70;1.88;;;;;;;11.90;71.03;100424.31;4135623;28;20459;-68
2023/04/02 08:54:07;;;;;;;2.92;1.70;;;;;;;11.96;70.65;100432.19;4136464;28;20042;-68
2023/04/02 08:56:18;;;;;;;1.85;1.65;;;;;;;11.90;70.46;100437.34;4139496;28;20037;-68
2023/04/02 08:58:32;;;;;;;3.33;2.08;;;;;;;11.84;70.93;100441.66;4142832;28;20399;-68
2023/04/02 09:00:39;;;;;;;3.80;2.33;;;;;;;11.96;69.46;100438.31;4138367;28;20093;-68
2023/04/02 09:02:47;;;;;;;2.53;1.70;;;;;;;11.95;69.51;100440.91;4130431;28;20055;-68
2023/04/02 09:04:50;;;;;;;3.67;1.90;;;;;;;11.91;70.21;100449.50;4133630;28;20065;-68
2023/04/02 09:06:56;;;;;;;4.78;1.88;;;;;;;11.94;70.41;100440.00;4135590;28;20045;-69
2023/04/02 09:08:59;;;;;;;2.80;1.98;;;;;;;11.96;69.44;100453.03;4137844;28;20044;-68
2023/04/02 09:11:07;;;;;;;2.13;1.50;;;;;;;12.03;69.99;100454.84;4141965;28;20046;-68
2023/04/02 09:13:17;;;;;;;4.25;1.90;;;;;;;11.99;69.83;100459.16;4140363;28;20038;-68
2023/04/02 09:15:28;;;;;;;3.50;2.35;;;;;;;12.03;69.57;100460.94;4131266;28;20034;-68
2023/04/02 09:17:31;;;;;;;4.07;2.33;;;;;;;12.02;69.74;100468.75;4116400;28;20077;-69
2023/04/02 09:19:55;;;;;;;5.18;2.08;;;;;;;12.08;69.68;100466.19;4134827;28;20034;-68
2023/04/02 09:22:07;;;;;;;2.35;1.70;;;;;;;12.12;69.13;100467.97;4138993;28;20038;-68
2023/04/02 09:24:12;;;;;;;4.45;1.90;;;;;;;12.15;69.53;100470.59;4141521;28;20042;-68
2023/04/02 09:26:22;;;;;;;2.78;1.90;;;;;;;12.16;69.23;100474.94;4139872;28;20050;-68
2023/04/02 09:28:25;;;;;;;3.17;1.77;;;;;;;12.16;69.44;100477.56;4113717;28;20040;-68
2023/04/02 09:30:42;;;;;;;3.42;2.60;;;;;;;12.27;68.37;100479.38;4131705;28;20046;-68
2023/04/02 09:32:49;;;;;;;3.38;2.30;;;;;;;12.28;68.36;100487.19;4132291;28;20061;-69
2023/04/02 09:35:05;;;;;;;4.50;2.80;;;;;;;12.36;68.03;100489.84;4135450;28;20193;-68
2023/04/02 09:37:24;;;;;;;4.07;2.60;;;;;;;12.33;67.84;100484.63;4129138;28;20039;-68
2023/04/02 09:39:27;;;;;;;4.85;2.33;;;;;;;12.29;67.29;100493.28;4137892;28;20046;-68
2023/04/02 09:41:30;;;;;;;3.03;2.20;;;;;;;12.25;67.47;100491.50;4130927;28;20066;-68
2023/04/02 09:43:35;;;;;;;2.77;2.00;;;;;;;12.25;67.83;100502.81;4132829;28;20571;-68
2023/04/02 09:45:41;;;;;;;2.47;2.10;;;;;;;12.27;68.23;100508.03;4135760;28;20125;-68
2023/04/02 09:47:43;;;;;;;2.83;2.17;;;;;;;12.28;68.42;100508.06;4131392;28;20092;-68
2023/04/02 09:49:46;;;;;;;3.15;2.13;;;;;;;12.36;68.88;100508.09;4135983;28;20147;-68
2023/04/02 09:52:21;;;;;;;2.67;2.25;;;;;;;12.54;68.66;100516.06;4143491;28;20057;-69
2023/04/02 09:54:25;;;;;;;2.50;2.28;;;;;;;12.54;68.18;100516.06;4127064;28;20213;-69
2023/04/02 09:56:29;;;;;;;4.50;2.72;;;;;;;12.60;68.11;100523.06;4133061;28;20042;-69
2023/04/02 09:58:32;;;;;;;2.30;1.90;;;;;;;12.70;67.62;100513.56;4135684;28;20488;-68
2023/04/02 10:00:35;;;;;;;3.80;2.80;;;;;;;12.78;67.12;100517.09;4138799;28;20563;-68